Time;durP1;ratioP1;P1;durP2;ratioP2;P2;SDS_P1;SDS_P2;PMS_P1;PMS_P2;Temp;Humidity;BMP_temperature;BMP_pressure;BME280_temperature;BME280_humidity;BME280_pressure;Samples;Min_cycle;Max_cycle;Signal;HPM_P1;HPM_P2
2023/04/08 00:00:24;;;;;;;114.43;102.78;;;;;;;5.28;100.00;101557.72;6213540;23;20061;-93
2023/04/08 00:02:50;;;;;;;91.07;81.05;;;;;;;5.28;100.00;101555.09;6213265;23;20016;-95
2023/04/08 00:05:18;;;;;;;93.20;83.13;;;;;;;5.23;100.00;101549.47;6213232;23;20020;-93
2023/04/08 00:07:44;;;;;;;99.40;84.35;;;;;;;4.87;100.00;101551.22;6213331;23;20521;-94
2023/04/08 00:10:11;;;;;;;111.45;98.72;;;;;;;5.15;100.00;101556.44;6212733;23;20373;-94
2023/04/08 00:12:38;;;;;;;117.25;105.20;;;;;;;5.15;100.00;101553.81;6213199;23;20017;-95
2023/04/08 00:15:06;;;;;;;114.90;102.95;;;;;;;5.26;100.00;101553.56;6212670;23;20016;-94
2023/04/08 00:17:35;;;;;;;107.85;95.22;;;;;;;5.30;100.00;101546.22;6212760;23;20020;-94
2023/04/08 00:20:02;;;;;;;105.60;93.68;;;;;;;5.24;100.00;101553.75;6213436;23;20071;-92
2023/04/08 00:22:31;;;;;;;108.32;97.15;;;;;;;5.23;100.00;101551.25;6213085;23;20016;-96
2023/04/08 00:25:01;;;;;;;109.68;97.78;;;;;;;5.23;100.00;101549.47;6212757;23;20017;-94
2023/04/08 00:27:28;;;;;;;108.07;96.43;;;;;;;5.29;100.00;101548.00;6213093;23;20035;-95
2023/04/08 00:29:56;;;;;;;102.30;91.13;;;;;;;5.25;100.00;101554.56;6213231;23;20501;-94
2023/04/08 00:32:23;;;;;;;96.85;85.43;;;;;;;5.25;100.00;101539.56;6212970;23;20013;-92
2023/04/08 00:34:51;;;;;;;103.03;91.85;;;;;;;5.33;100.00;101546.75;6212299;23;20021;-92
2023/04/08 00:37:18;;;;;;;105.60;95.00;;;;;;;5.03;100.00;101556.66;6212335;23;20377;-93
2023/04/08 00:39:45;;;;;;;105.93;94.80;;;;;;;5.30;100.00;101548.84;6212713;23;20013;-93
2023/04/08 00:42:12;;;;;;;109.25;97.63;;;;;;;4.89;100.00;101543.19;6212735;23;20288;-92
2023/04/08 00:44:39;;;;;;;104.28;93.38;;;;;;;5.26;100.00;101543.03;6212981;23;20017;-93
2023/04/08 00:47:06;;;;;;;108.50;97.18;;;;;;;5.18;100.00;101549.06;6212368;23;20021;-91
2023/04/08 00:49:33;;;;;;;117.50;105.63;;;;;;;4.96;100.00;101546.84;6212553;23;20082;-92
2023/04/08 00:52:01;;;;;;;112.57;100.70;;;;;;;5.11;100.00;101550.63;6212004;23;20027;-92
2023/04/08 00:54:28;;;;;;;114.35;102.22;;;;;;;5.20;100.00;101552.38;6212986;23;20027;-93
2023/04/08 00:56:55;;;;;;;109.25;97.63;;;;;;;5.33;100.00;101548.56;6213143;23;20027;-91
2023/04/08 00:59:22;;;;;;;136.07;122.70;;;;;;;5.37;100.00;101549.91;6212869;23;20096;-92
2023/04/08 01:01:55;;;;;;;113.90;101.63;;;;;;;5.40;100.00;101552.22;6212189;23;20027;-92
2023/04/08 01:04:35;;;;;;;122.43;109.20;;;;;;;5.44;100.00;101537.75;6212492;23;20074;-91
2023/04/08 01:07:12;;;;;;;118.80;106.05;;;;;;;5.22;100.00;101539.88;6212587;23;20039;-95
2023/04/08 01:09:44;;;;;;;122.20;108.93;;;;;;;5.31;100.00;101532.88;6212498;23;20017;-94
2023/04/08 01:12:14;;;;;;;137.82;123.95;;;;;;;5.39;100.00;101540.03;6212883;23;20379;-91
2023/04/08 01:14:45;;;;;;;125.68;112.57;;;;;;;5.37;100.00;101542.00;6211259;23;20462;-93
2023/04/08 01:17:11;;;;;;;113.40;101.28;;;;;;;5.14;100.00;101529.25;6212455;23;20059;-93
2023/04/08 01:19:43;;;;;;;114.47;101.95;;;;;;;5.24;100.00;101540.56;6212629;23;20016;-92
2023/04/08 01:22:23;;;;;;;126.60;113.25;;;;;;;5.25;100.00;101538.75;6212641;23;20017;-93
2023/04/08 01:24:57;;;;;;;122.75;109.43;;;;;;;5.28;100.00;101541.91;6212918;23;20032;-92
2023/04/08 01:27:29;;;;;;;129.48;115.72;;;;;;;5.36;100.00;101537.72;6212602;23;20051;-92
2023/04/08 01:29:58;;;;;;;126.05;112.63;;;;;;;5.36;100.00;101538.53;6212320;23;20016;-92
2023/04/08 01:32:26;;;;;;;123.93;109.70;;;;;;;5.25;100.00;101544.84;6211901;23;20021;-91
2023/04/08 01:34:54;;;;;;;132.20;111.38;;;;;;;5.38;100.00;101546.28;6212640;23;20028;-92
2023/04/08 01:37:22;;;;;;;131.52;118.00;;;;;;;5.30;100.00;101544.41;6212300;23;20395;-93
2023/04/08 01:39:51;;;;;;;121.97;108.95;;;;;;;5.30;100.00;101547.03;6211891;23;20316;-93
2023/04/08 01:42:18;;;;;;;131.82;113.97;;;;;;;5.20;100.00;101539.19;6212409;23;20016;-92
2023/04/08 01:44:47;;;;;;;117.63;101.10;;;;;;;5.21;100.00;101540.88;6212391;23;20012;-92
2023/04/08 01:47:14;;;;;;;125.85;112.70;;;;;;;5.04;100.00;101547.78;6212272;23;20017;-92
2023/04/08 01:49:42;;;;;;;128.48;115.35;;;;;;;5.07;100.00;101543.19;6212618;23;20481;-92
2023/04/08 01:52:10;;;;;;;136.60;122.25;;;;;;;5.16;100.00;101535.22;6212335;23;20043;-91
2023/04/08 01:54:37;;;;;;;148.27;133.20;;;;;;;5.18;100.00;101535.09;6214427;23;20098;-93
2023/04/08 01:57:07;;;;;;;144.07;129.25;;;;;;;5.11;100.00;101537.47;6214150;23;20028;-92
2023/04/08 01:59:37;;;;;;;145.45;130.05;;;;;;;5.03;100.00;101538.22;6214157;23;20398;-93
2023/04/08 02:02:08;;;;;;;134.10;119.82;;;;;;;5.22;100.00;101533.78;6214086;23;20020;-92
2023/04/08 02:04:36;;;;;;;123.70;110.90;;;;;;;5.32;100.00;101536.34;6213803;23;20021;-93
2023/04/08 02:07:04;;;;;;;114.63;102.38;;;;;;;5.35;100.00;101539.50;6214135;23;20035;-92
2023/04/08 02:09:31;;;;;;;115.97;104.35;;;;;;;5.31;100.00;101534.69;6214712;23;20473;-92
2023/04/08 02:11:58;;;;;;;113.40;101.75;;;;;;;5.23;100.00;101531.03;6214579;23;20036;-93
2023/04/08 02:14:26;;;;;;;104.65;93.28;;;;;;;5.19;100.00;101528.81;6214329;23;20013;-91
2023/04/08 02:16:54;;;;;;;117.85;105.53;;;;;;;5.22;100.00;101531.16;6214061;23;20021;-91
2023/04/08 02:19:28;;;;;;;103.13;92.28;;;;;;;5.30;100.00;101527.78;6214120;23;20021;-92
2023/04/08 02:22:00;;;;;;;111.57;100.75;;;;;;;5.33;100.00;101525.66;6214750;23;20016;-94
2023/04/08 02:24:30;;;;;;;90.22;78.82;;;;;;;5.35;100.00;101530.78;6214194;23;20012;-92
2023/04/08 02:26:57;;;;;;;95.65;85.15;;;;;;;5.31;100.00;101537.34;6214013;23;20462;-92
2023/04/08 02:29:26;;;;;;;93.35;80.90;;;;;;;5.29;100.00;101521.66;6214421;23;20024;-93
2023/04/08 02:31:53;;;;;;;100.38;89.68;;;;;;;5.40;100.00;101517.97;6213013;23;20013;-91
2023/04/08 02:34:21;;;;;;;93.65;80.93;;;;;;;5.32;100.00;101517.91;6214055;23;20454;-93
2023/04/08 02:36:51;;;;;;;99.32;85.32;;;;;;;5.35;100.00;101522.88;6214220;23;20434;-93
2023/04/08 02:39:18;;;;;;;195.55;126.43;;;;;;;5.16;100.00;101519.41;6214143;23;20028;-91
2023/04/08 02:41:45;;;;;;;182.50;130.48;;;;;;;5.29;100.00;101516.38;6213432;23;20020;-91
2023/04/08 02:44:11;;;;;;;94.45;80.43;;;;;;;5.17;100.00;101515.78;6214190;23;20012;-94
2023/04/08 02:46:38;;;;;;;93.03;81.10;;;;;;;5.18;100.00;101508.75;6213869;23;20020;-94
2023/04/08 02:49:05;;;;;;;116.25;93.85;;;;;;;4.75;100.00;101512.91;6213865;23;20021;-91
2023/04/08 02:51:32;;;;;;;116.25;94.68;;;;;;;4.87;100.00;101513.53;6213895;23;20028;-92
2023/04/08 02:54:04;;;;;;;111.55;98.22;;;;;;;4.75;100.00;101521.66;6214024;23;20024;-92
2023/04/08 02:56:30;;;;;;;117.22;104.22;;;;;;;4.93;100.00;101518.19;6213716;23;20016;-91
2023/04/08 02:58:57;;;;;;;120.05;107.20;;;;;;;4.91;100.00;101525.44;6213540;23;20023;-92
2023/04/08 03:01:24;;;;;;;125.38;112.10;;;;;;;4.98;100.00;101519.41;6214008;23;20033;-92
2023/04/08 03:03:51;;;;;;;112.57;100.00;;;;;;;5.07;100.00;101522.94;6213536;23;20013;-92
2023/04/08 03:06:18;;;;;;;123.28;103.63;;;;;;;5.00;100.00;101532.44;6214230;23;20036;-94
2023/04/08 03:08:45;;;;;;;123.40;109.82;;;;;;;4.86;100.00;101528.50;6213880;23;20020;-92
2023/04/08 03:11:14;;;;;;;125.85;112.28;;;;;;;4.85;100.00;101529.47;6213681;23;20021;-92
2023/04/08 03:13:41;;;;;;;115.78;103.05;;;;;;;4.93;100.00;101534.00;6213113;23;20012;-92
2023/04/08 03:16:08;;;;;;;146.65;132.32;;;;;;;4.71;100.00;101522.91;6213436;23;20023;-92
2023/04/08 03:18:35;;;;;;;140.80;126.30;;;;;;;4.75;100.00;101532.19;6213464;23;20096;-93
2023/04/08 03:21:02;;;;;;;139.55;125.00;;;;;;;4.89;100.00;101533.47;6213630;23;20075;-95
2023/04/08 03:23:29;;;;;;;140.35;126.30;;;;;;;4.75;100.00;101532.19;6213604;23;20237;-91
2023/04/08 03:25:56;;;;;;;142.98;128.20;;;;;;;4.81;100.00;101539.50;6213977;23;20402;-92
2023/04/08 03:28:24;;;;;;;130.10;116.22;;;;;;;4.80;100.00;101537.81;6213878;23;20019;-92
2023/04/08 03:30:51;;;;;;;133.40;119.57;;;;;;;4.77;100.00;101532.03;6213966;23;20100;-91
2023/04/08 03:33:18;;;;;;;139.95;125.70;;;;;;;4.94;100.00;101536.50;6213808;23;20025;-93
2023/04/08 03:35:45;;;;;;;142.15;127.43;;;;;;;4.94;100.00;101544.38;6213417;23;20020;-91
2023/04/08 03:38:12;;;;;;;127.47;114.10;;;;;;;4.94;100.00;101546.19;6213506;23;20016;-91
2023/04/08 03:40:38;;;;;;;125.70;111.88;;;;;;;4.95;100.00;101543.41;6212698;23;20017;-92
2023/04/08 03:43:07;;;;;;;134.18;119.60;;;;;;;4.51;100.00;101545.06;6213472;23;20043;-94
2023/04/08 03:45:35;;;;;;;142.93;127.75;;;;;;;4.76;100.00;101548.81;6213912;23;20016;-94
2023/04/08 03:48:02;;;;;;;150.80;135.40;;;;;;;4.80;100.00;101543.06;6213790;23;20370;-94
2023/04/08 03:50:29;;;;;;;153.82;138.15;;;;;;;4.96;100.00;101546.84;6213013;23;20451;-93
2023/04/08 03:52:56;;;;;;;139.05;125.10;;;;;;;4.93;100.00;101544.53;6213750;23;20465;-93
2023/04/08 03:55:23;;;;;;;130.65;116.28;;;;;;;4.88;100.00;101552.88;6213399;23;20365;-92
2023/04/08 03:57:50;;;;;;;145.18;116.03;;;;;;;4.92;100.00;101546.34;6213508;23;20036;-92
2023/04/08 04:00:17;;;;;;;139.75;110.40;;;;;;;4.97;100.00;101554.63;6213017;23;20023;-92
2023/04/08 04:02:45;;;;;;;115.85;103.25;;;;;;;4.96;100.00;101557.38;6213142;23;20013;-93
2023/04/08 04:05:12;;;;;;;121.78;106.25;;;;;;;4.86;100.00;101556.63;6212962;23;20020;-92
2023/04/08 04:07:39;;;;;;;121.47;108.32;;;;;;;4.98;100.00;101556.25;6213124;23;20020;-93
2023/04/08 04:10:07;;;;;;;122.35;109.75;;;;;;;4.88;100.00;101552.06;6213594;23;20026;-94
2023/04/08 04:12:33;;;;;;;123.85;110.68;;;;;;;4.92;100.00;101562.13;6213338;23;20074;-94
2023/04/08 04:15:00;;;;;;;117.80;104.70;;;;;;;4.82;100.00;101559.56;6213069;23;20051;-93
2023/04/08 04:17:29;;;;;;;128.77;114.60;;;;;;;4.91;100.00;101564.94;6213238;23;20285;-93
2023/04/08 04:19:57;;;;;;;132.57;118.75;;;;;;;4.84;100.00;101559.41;6213877;23;20096;-94
2023/04/08 04:22:24;;;;;;;127.18;114.20;;;;;;;5.00;100.00;101564.84;6213125;23;20020;-94
2023/04/08 04:24:51;;;;;;;123.82;111.25;;;;;;;5.10;100.00;101570.06;6212963;23;20019;-93
2023/04/08 04:27:18;;;;;;;107.18;96.50;;;;;;;5.26;100.00;101569.38;6212525;23;20040;-93
2023/04/08 04:29:45;;;;;;;98.85;88.80;;;;;;;5.31;100.00;101563.66;6212457;23;20027;-94
2023/04/08 04:32:12;;;;;;;96.85;86.80;;;;;;;5.33;100.00;101569.63;6212658;23;20028;-93
2023/04/08 04:34:39;;;;;;;85.75;74.68;;;;;;;5.30;100.00;101565.47;6211958;23;20023;-93
2023/04/08 04:37:07;;;;;;;87.68;78.57;;;;;;;5.45;100.00;101569.25;6205516;23;20028;-93
2023/04/08 04:39:34;;;;;;;84.32;75.38;;;;;;;5.51;100.00;101573.09;6208539;23;20027;-92
2023/04/08 04:42:02;;;;;;;79.60;71.22;;;;;;;5.53;100.00;101573.75;6208325;23;20016;-94
2023/04/08 04:44:29;;;;;;;72.88;63.75;;;;;;;5.58;100.00;101570.66;6208302;23;20024;-94
2023/04/08 04:46:56;;;;;;;73.78;63.95;;;;;;;5.43;100.00;101575.63;6210696;23;20012;-93
2023/04/08 04:49:22;;;;;;;75.53;63.30;;;;;;;5.62;100.00;101572.81;6207766;23;20024;-94
2023/04/08 04:51:49;;;;;;;74.38;64.00;;;;;;;5.62;100.00;101579.91;6211888;23;20031;-94
2023/04/08 04:54:18;;;;;;;71.85;62.72;;;;;;;5.71;100.00;101586.91;6212177;23;20024;-93
2023/04/08 04:56:45;;;;;;;71.82;63.95;;;;;;;5.73;100.00;101584.94;6210930;23;20074;-94
2023/04/08 04:59:12;;;;;;;74.70;66.35;;;;;;;5.82;100.00;101585.84;6162807;23;20088;-94
2023/04/08 05:01:39;;;;;;;82.63;74.18;;;;;;;5.79;100.00;101591.44;6210628;23;20466;-93
2023/04/08 05:04:06;;;;;;;83.90;75.57;;;;;;;5.83;100.00;101592.75;6209700;23;20013;-95
2023/04/08 05:06:34;;;;;;;89.22;79.82;;;;;;;5.99;100.00;101581.53;6211162;23;20425;-93
2023/04/08 05:09:00;;;;;;;82.00;73.10;;;;;;;5.88;100.00;101588.69;6212046;23;20021;-93
2023/04/08 05:11:29;;;;;;;80.57;72.63;;;;;;;6.02;100.00;101595.25;6211147;23;20071;-93
2023/04/08 05:13:55;;;;;;;91.50;83.10;;;;;;;6.10;100.00;101590.00;6212143;23;20104;-94
2023/04/08 05:16:22;;;;;;;88.30;79.70;;;;;;;6.07;100.00;101581.59;6208851;23;20559;-93
2023/04/08 05:18:49;;;;;;;91.95;83.22;;;;;;;6.21;100.00;101591.56;6209355;23;20022;-93
2023/04/08 05:21:16;;;;;;;79.22;71.60;;;;;;;6.14;100.00;101577.34;6210120;23;20095;-94
2023/04/08 05:23:43;;;;;;;80.03;72.25;;;;;;;6.27;100.00;101580.41;6210351;23;20043;-92
2023/04/08 05:26:10;;;;;;;79.95;72.43;;;;;;;6.36;100.00;101583.91;6211021;23;20012;-94
2023/04/08 05:28:38;;;;;;;82.43;74.85;;;;;;;6.39;100.00;101586.25;6209865;23;20021;-93
2023/04/08 05:31:05;;;;;;;80.32;72.63;;;;;;;6.40;100.00;101583.44;6210843;23;20074;-93
2023/04/08 05:33:32;;;;;;;74.68;67.60;;;;;;;6.43;100.00;101584.94;6211594;23;20021;-93
2023/04/08 05:35:59;;;;;;;74.38;66.65;;;;;;;6.48;100.00;101580.00;6206623;23;20012;-93
2023/04/08 05:38:26;;;;;;;76.60;68.72;;;;;;;6.78;100.00;101583.13;6210538;23;20017;-92
2023/04/08 05:40:52;;;;;;;74.93;67.35;;;;;;;6.72;100.00;101587.22;6211755;23;20024;-93
2023/04/08 05:43:19;;;;;;;77.00;69.35;;;;;;;6.93;100.00;101581.50;6212147;23;20021;-92
2023/04/08 05:45:48;;;;;;;75.35;68.22;;;;;;;7.11;100.00;101576.94;6211464;23;20019;-93
2023/04/08 05:48:15;;;;;;;72.15;65.40;;;;;;;7.31;100.00;101582.72;6211623;23;20017;-93
2023/04/08 05:50:42;;;;;;;60.80;55.17;;;;;;;7.39;100.00;101581.09;6211697;23;20016;-93
2023/04/08 05:53:09;;;;;;;75.97;69.15;;;;;;;7.78;100.00;101576.81;6211308;23;20078;-93
2023/04/08 05:55:36;;;;;;;69.15;63.05;;;;;;;7.82;100.00;101579.94;6211959;23;20017;-93
2023/04/08 05:58:03;;;;;;;59.60;54.15;;;;;;;7.80;100.00;101582.72;6211887;23;20012;-93
2023/04/08 06:00:30;;;;;;;53.33;45.97;;;;;;;7.93;100.00;101590.19;6212597;23;20020;-93
2023/04/08 06:03:01;;;;;;;51.13;45.83;;;;;;;8.08;100.00;101587.69;6211810;23;20017;-93
2023/04/08 06:05:28;;;;;;;48.67;43.58;;;;;;;8.04;100.00;101595.09;6211933;23;20017;-96
2023/04/08 06:07:55;;;;;;;46.58;41.78;;;;;;;8.01;100.00;101595.44;6211728;23;20410;-93
2023/04/08 06:10:22;;;;;;;46.35;41.42;;;;;;;7.82;100.00;101590.53;6210187;23;20103;-94
2023/04/08 06:12:49;;;;;;;41.45;37.17;;;;;;;8.45;100.00;101594.25;6211399;23;20537;-93
2023/04/08 06:15:16;;;;;;;44.60;38.78;;;;;;;7.96;100.00;101600.44;6212290;23;20019;-94
2023/04/08 06:17:43;;;;;;;44.80;40.55;;;;;;;8.35;100.00;101598.84;6211720;23;20048;-92
2023/04/08 06:20:12;;;;;;;46.45;41.75;;;;;;;8.07;100.00;101593.13;6211031;23;20024;-94
2023/04/08 06:22:39;;;;;;;46.95;42.10;;;;;;;8.25;100.00;101591.94;6211303;23;20035;-94
2023/04/08 06:25:07;;;;;;;43.72;39.33;;;;;;;8.49;100.00;101585.78;6211944;23;20067;-94
2023/04/08 06:27:33;;;;;;;45.78;39.38;;;;;;;8.37;100.00;101586.28;6211508;23;20012;-93
2023/04/08 06:30:00;;;;;;;43.08;38.60;;;;;;;8.48;100.00;101592.06;6209098;23;20021;-95
2023/04/08 06:32:27;;;;;;;42.92;38.60;;;;;;;8.60;100.00;101597.81;6211558;23;20017;-94
2023/04/08 06:34:55;;;;;;;41.95;37.42;;;;;;;8.73;100.00;101591.16;6212746;23;20013;-93
2023/04/08 06:37:23;;;;;;;127.72;82.55;;;;;;;8.38;100.00;101596.75;6211653;23;20083;-94
2023/04/08 06:39:50;;;;;;;79.35;62.15;;;;;;;8.76;100.00;101596.09;6212235;23;20474;-95
2023/04/08 06:42:17;;;;;;;43.17;38.65;;;;;;;9.20;100.00;101580.47;6213462;23;20024;-94
2023/04/08 06:44:44;;;;;;;62.70;41.28;;;;;;;8.92;100.00;101582.78;6213392;23;20017;-93
2023/04/08 06:47:11;;;;;;;43.75;38.95;;;;;;;8.84;100.00;101588.13;6213109;23;20023;-94
2023/04/08 06:49:38;;;;;;;41.60;37.35;;;;;;;9.02;100.00;101582.56;6213496;23;20017;-95
2023/04/08 06:52:05;;;;;;;41.15;37.10;;;;;;;9.47;100.00;101579.13;6213431;23;20545;-93
2023/04/08 06:54:33;;;;;;;39.50;35.70;;;;;;;9.25;100.00;101585.22;6213149;23;20071;-93
2023/04/08 06:57:00;;;;;;;39.50;35.35;;;;;;;9.24;100.00;101583.59;6212991;23;20023;-94
2023/04/08 06:59:28;;;;;;;40.50;36.38;;;;;;;9.63;100.00;101584.28;6214150;23;20039;-94
2023/04/08 07:01:55;;;;;;;40.90;36.47;;;;;;;9.72;100.00;101579.75;6213820;23;20143;-93
2023/04/08 07:04:22;;;;;;;40.47;36.38;;;;;;;9.27;100.00;101577.94;6213320;23;20019;-93
2023/04/08 07:06:49;;;;;;;39.67;35.70;;;;;;;9.31;100.00;101580.03;6212896;23;20016;-93
2023/04/08 07:09:17;;;;;;;40.60;36.42;;;;;;;9.17;100.00;101584.28;6211618;23;20017;-94
2023/04/08 07:11:45;;;;;;;43.83;38.67;;;;;;;9.26;100.00;101582.41;6211849;23;20027;-94
2023/04/08 07:14:12;;;;;;;54.75;45.35;;;;;;;9.27;100.00;101584.06;6211631;23;20013;-94
2023/04/08 07:16:39;;;;;;;49.08;40.60;;;;;;;9.18;100.00;101580.63;6211817;23;20017;-93
2023/04/08 07:19:06;;;;;;;44.85;39.97;;;;;;;9.88;100.00;101583.25;6211190;23;20016;-93
2023/04/08 07:21:34;;;;;;;39.42;35.58;;;;;;;9.98;100.00;101579.31;6210115;23;20030;-94
2023/04/08 07:24:00;;;;;;;38.28;34.53;;;;;;;10.30;100.00;101585.34;6212828;23;20063;-95
2023/04/08 07:26:28;;;;;;;40.33;36.33;;;;;;;9.88;100.00;101585.91;6212850;23;20055;-94
2023/04/08 07:28:56;;;;;;;36.55;32.78;;;;;;;10.26;100.00;101600.81;6211396;23;20031;-94
2023/04/08 07:31:23;;;;;;;42.72;37.60;;;;;;;9.71;100.00;101596.63;6211209;23;20020;-93
2023/04/08 07:33:50;;;;;;;39.90;35.80;;;;;;;10.05;100.00;101601.50;6210494;23;20024;-93
2023/04/08 07:36:17;;;;;;;39.88;35.97;;;;;;;10.21;100.00;101595.19;6211002;23;20016;-93
2023/04/08 07:38:44;;;;;;;40.72;36.78;;;;;;;10.14;100.00;101602.25;6211650;23;20020;-94
2023/04/08 07:41:11;;;;;;;43.97;39.35;;;;;;;9.96;100.00;101589.31;6211495;23;20024;-93
2023/04/08 07:43:38;;;;;;;42.65;37.42;;;;;;;9.72;100.00;101600.97;6211865;23;20024;-93
2023/04/08 07:46:07;;;;;;;52.72;44.08;;;;;;;9.59;100.00;101600.72;6211502;23;20017;-93
2023/04/08 07:48:35;;;;;;;40.80;36.50;;;;;;;9.98;100.00;101597.91;6211070;23;20023;-93
2023/04/08 07:51:04;;;;;;;40.80;36.80;;;;;;;9.99;100.00;101596.09;6211536;23;20020;-94
2023/04/08 07:53:32;;;;;;;42.30;37.95;;;;;;;10.56;100.00;101600.84;6211796;23;20020;-94
2023/04/08 07:55:59;;;;;;;39.97;35.95;;;;;;;10.88;100.00;101596.91;6211701;23;20361;-94
2023/04/08 07:58:26;;;;;;;40.13;36.05;;;;;;;10.44;100.00;101607.56;6211441;23;20025;-93
2023/04/08 08:00:53;;;;;;;37.80;33.95;;;;;;;10.27;100.00;101602.47;6211368;23;20024;-94
2023/04/08 08:03:21;;;;;;;40.67;36.55;;;;;;;10.58;100.00;101604.09;6210462;23;20462;-94
2023/04/08 08:05:48;;;;;;;39.30;35.33;;;;;;;10.68;100.00;101596.69;6211110;23;20013;-94
2023/04/08 08:08:15;;;;;;;39.63;35.63;;;;;;;10.46;100.00;101600.25;6211478;23;20017;-94
2023/04/08 08:10:42;;;;;;;38.15;34.35;;;;;;;11.10;100.00;101602.28;6211168;23;20020;-95
2023/04/08 08:13:11;;;;;;;38.03;34.17;;;;;;;11.15;100.00;101595.38;6213141;23;20032;-94
2023/04/08 08:15:38;;;;;;;43.50;39.20;;;;;;;12.04;100.00;101599.47;6212805;23;20027;-94
2023/04/08 08:18:05;;;;;;;38.65;34.67;;;;;;;12.01;100.00;101602.53;6212927;23;20017;-94
2023/04/08 08:20:33;;;;;;;38.83;34.78;;;;;;;12.02;100.00;101601.53;6212802;23;20021;-93
2023/04/08 08:23:00;;;;;;;36.28;32.67;;;;;;;11.98;100.00;101598.44;6212775;23;20024;-94
2023/04/08 08:25:27;;;;;;;36.53;32.83;;;;;;;11.75;100.00;101601.28;6212980;23;20020;-94
2023/04/08 08:27:54;;;;;;;39.70;33.60;;;;;;;12.19;100.00;101592.22;6212474;23;20025;-93
2023/04/08 08:30:21;;;;;;;40.05;36.13;;;;;;;12.52;100.00;101594.25;6211926;23;20412;-94
2023/04/08 08:32:48;;;;;;;36.13;32.45;;;;;;;12.70;100.00;101585.72;6212347;23;20413;-93
2023/04/08 08:35:15;;;;;;;37.97;34.10;;;;;;;13.32;100.00;101602.56;6213746;23;20091;-93
2023/04/08 08:37:44;;;;;;;35.67;31.90;;;;;;;12.64;100.00;101602.50;6212667;23;20039;-93
2023/04/08 08:40:11;;;;;;;36.38;32.88;;;;;;;12.91;100.00;101601.59;6212885;23;20039;-94
2023/04/08 08:42:39;;;;;;;34.20;30.70;;;;;;;13.35;100.00;101592.31;6212027;23;20025;-94
2023/04/08 08:45:07;;;;;;;38.50;34.50;;;;;;;13.45;100.00;101590.06;6212133;23;20020;-94
2023/04/08 08:47:34;;;;;;;37.85;33.85;;;;;;;12.40;100.00;101601.97;6207438;23;20027;-92
2023/04/08 08:50:03;;;;;;;36.60;33.03;;;;;;;12.60;100.00;101608.22;6211233;23;20070;-95
2023/04/08 08:52:30;;;;;;;38.00;32.55;;;;;;;12.55;100.00;101594.66;6208023;23;20017;-93
2023/04/08 08:55:01;;;;;;;38.53;34.53;;;;;;;12.22;100.00;101596.31;6212813;23;20520;-93
2023/04/08 08:57:28;;;;;;;37.97;34.20;;;;;;;12.66;100.00;101606.63;6212670;23;20035;-93
2023/04/08 08:59:55;;;;;;;36.05;32.42;;;;;;;12.99;100.00;101601.41;6211295;23;20025;-94
2023/04/08 09:02:27;;;;;;;35.20;31.50;;;;;;;12.64;100.00;101602.50;6210905;23;20028;-94
2023/04/08 09:04:59;;;;;;;33.85;30.25;;;;;;;12.55;100.00;101597.34;6213664;23;20417;-93
2023/04/08 09:07:27;;;;;;;35.72;31.83;;;;;;;12.69;100.00;101611.56;6211214;23;20525;-93
2023/04/08 09:09:55;;;;;;;34.58;30.50;;;;;;;12.54;100.00;101595.69;6211253;23;20513;-94
2023/04/08 09:12:26;;;;;;;36.92;32.97;;;;;;;12.91;100.00;101601.59;6212591;23;20020;-93
2023/04/08 09:15:03;;;;;;;36.08;32.53;;;;;;;13.54;100.00;101595.22;6212033;23;20017;-94
2023/04/08 09:17:34;;;;;;;36.33;32.58;;;;;;;13.35;100.00;101596.84;6211855;23;20017;-93
2023/04/08 09:20:10;;;;;;;34.78;31.27;;;;;;;13.38;100.00;101610.59;6212246;23;20032;-94
2023/04/08 09:22:55;;;;;;;36.25;32.63;;;;;;;14.28;100.00;101594.13;6211090;23;20099;-94
2023/04/08 09:25:27;;;;;;;34.38;30.88;;;;;;;13.55;100.00;101591.50;6212490;23;20020;-95
2023/04/08 09:27:56;;;;;;;35.70;31.83;;;;;;;14.10;100.00;101597.44;6212295;23;20465;-91
2023/04/08 09:30:24;;;;;;;34.92;31.33;;;;;;;13.71;100.00;101596.47;6209716;23;20027;-92
2023/04/08 09:32:53;;;;;;;34.35;30.70;;;;;;;13.77;100.00;101597.47;6211257;23;20496;-92
2023/04/08 09:35:20;;;;;;;32.20;29.17;;;;;;;13.96;100.00;101594.78;6210836;23;20013;-93
2023/04/08 09:37:48;;;;;;;35.20;31.80;;;;;;;14.29;100.00;101587.75;6212305;23;20472;-92
2023/04/08 09:40:17;;;;;;;34.25;31.10;;;;;;;14.07;100.00;101592.50;6211574;23;20457;-91
2023/04/08 09:42:52;;;;;;;32.47;29.50;;;;;;;14.10;100.00;101598.28;6210207;23;20028;-92
2023/04/08 09:45:20;;;;;;;33.83;30.63;;;;;;;14.46;100.00;101591.59;6209120;23;20017;-92
2023/04/08 09:47:57;;;;;;;31.20;28.27;;;;;;;14.73;100.00;101592.38;6210712;23;20016;-94
2023/04/08 09:50:28;;;;;;;33.40;30.17;;;;;;;14.90;100.00;101584.69;6209998;23;20024;-92
2023/04/08 09:53:01;;;;;;;32.55;29.55;;;;;;;15.20;100.00;101592.16;6210639;23;20074;-91
2023/04/08 09:55:31;;;;;;;32.72;29.73;;;;;;;15.39;100.00;101587.69;6210145;23;20024;-91
2023/04/08 09:58:03;;;;;;;32.05;29.15;;;;;;;16.27;100.00;101595.59;6210093;23;20024;-93
2023/04/08 10:00:37;;;;;;;32.92;29.65;;;;;;;14.70;100.00;101594.66;6210180;23;20017;-92
2023/04/08 10:03:12;;;;;;;29.92;27.42;;;;;;;14.19;100.00;101599.72;6209889;23;20025;-92
2023/04/08 10:05:41;;;;;;;31.60;28.75;;;;;;;14.03;100.00;101599.31;6210656;23;20092;-92
2023/04/08 10:08:08;;;;;;;32.53;29.40;;;;;;;13.51;100.00;101607.09;6211988;23;20017;-94
2023/04/08 10:10:38;;;;;;;31.35;28.27;;;;;;;13.73;100.00;101599.72;6211753;23;20016;-93
2023/04/08 10:13:06;;;;;;;31.98;29.00;;;;;;;14.19;100.00;101598.84;6211770;23;20462;-94
2023/04/08 10:15:36;;;;;;;29.67;26.88;;;;;;;13.92;100.00;101592.75;6213280;23;20016;-95
2023/04/08 10:18:33;;;;;;;28.92;26.17;;;;;;;15.01;100.00;101588.56;6213649;23;20020;-92
2023/04/08 10:21:01;;;;;;;29.55;26.60;;;;;;;15.34;98.65;101583.00;6092954;23;20029;-93
2023/04/08 10:23:58;;;;;;;32.30;29.50;;;;;;;14.91;98.51;101590.84;6187240;23;20024;-92
2023/04/08 10:26:33;;;;;;;33.42;30.17;;;;;;;15.03;100.00;101589.97;6213866;23;20106;-94
2023/04/08 10:29:31;;;;;;;31.63;28.73;;;;;;;14.62;100.00;101588.50;6213807;23;20095;-95
2023/04/08 10:32:01;;;;;;;32.75;29.75;;;;;;;15.65;100.00;101567.94;6213159;23;20024;-92
2023/04/08 10:34:29;;;;;;;35.55;32.05;;;;;;;15.55;100.00;101569.25;6213724;23;20096;-91
2023/04/08 10:37:02;;;;;;;33.30;30.35;;;;;;;15.34;100.00;101573.13;6214633;23;20492;-96
2023/04/08 10:39:31;;;;;;;34.53;31.35;;;;;;;15.96;96.03;101573.25;6215499;23;20096;-95
2023/04/08 10:42:01;;;;;;;32.70;29.80;;;;;;;15.65;88.41;101566.09;6213398;23;20020;-94
2023/04/08 10:44:28;;;;;;;32.78;30.00;;;;;;;15.37;97.63;101569.19;6213831;23;20489;-93
2023/04/08 10:46:55;;;;;;;33.03;30.13;;;;;;;16.03;94.81;101568.63;6214317;23;20017;-91
2023/04/08 10:49:32;;;;;;;32.17;29.48;;;;;;;15.88;99.98;101557.44;6214287;23;20083;-95
2023/04/08 10:52:00;;;;;;;31.23;28.38;;;;;;;16.42;99.17;101557.72;6213962;23;20021;-92
2023/04/08 10:54:27;;;;;;;32.60;29.65;;;;;;;15.69;97.87;101556.59;6214335;23;20024;-95
2023/04/08 10:56:54;;;;;;;34.38;31.08;;;;;;;15.06;98.60;101559.28;6213621;23;20017;-93
2023/04/08 10:59:28;;;;;;;30.58;27.67;;;;;;;15.36;100.00;101559.50;6214077;23;20016;-94
2023/04/08 11:01:56;;;;;;;30.90;27.95;;;;;;;14.89;93.64;101554.44;6214644;23;20025;-94
2023/04/08 11:04:26;;;;;;;31.98;28.98;;;;;;;14.36;100.00;101554.63;6214074;23;20017;-93
2023/04/08 11:06:53;;;;;;;30.48;27.58;;;;;;;15.12;100.00;101550.41;6214114;23;20474;-93